Time;durP1;ratioP1;P1;durP2;ratioP2;P2;SDS_P1;SDS_P2;PMS_P1;PMS_P2;Temp;Humidity;BMP_temperature;BMP_pressure;BME280_temperature;BME280_humidity;BME280_pressure;Samples;Min_cycle;Max_cycle;Signal;HPM_P1;HPM_P2
2023/04/26 00:01:41;;;;;;;;;;;5.90;72.50;;;;;;5073762;28;20003;-32
2023/04/26 00:04:10;;;;;;;;;;;5.90;72.60;;;;;;5073667;28;19917;-29
2023/04/26 00:06:36;;;;;;;;;;;5.80;72.50;;;;;;5073707;28;19955;-29
2023/04/26 00:09:02;;;;;;;;;;;5.80;72.60;;;;;;5073570;28;20371;-30
2023/04/26 00:11:27;;;;;;;;;;;5.80;72.60;;;;;;5073754;28;19999;-29
2023/04/26 00:13:53;;;;;;;;;;;5.80;72.80;;;;;;5073489;28;19912;-29
2023/04/26 00:16:19;;;;;;;;;;;5.80;72.80;;;;;;5073588;28;19912;-29
2023/04/26 00:18:45;;;;;;;;;;;5.80;72.90;;;;;;5073457;28;19912;-30
2023/04/26 00:21:11;;;;;;;;;;;5.70;72.90;;;;;;5073291;28;19943;-29
2023/04/26 00:23:36;;;;;;;;;;;5.70;72.90;;;;;;5073248;28;19920;-29
2023/04/26 00:26:02;;;;;;;;;;;5.70;72.90;;;;;;5073368;28;19913;-28
2023/04/26 00:28:28;;;;;;;;;;;5.70;73.00;;;;;;5073501;28;20015;-29
2023/04/26 00:30:56;;;;;;;;;;;5.70;73.00;;;;;;5073491;28;20356;-28
2023/04/26 00:33:22;;;;;;;;;;;5.70;73.00;;;;;;5073756;28;19942;-29
2023/04/26 00:35:47;;;;;;;;;;;5.70;73.00;;;;;;5071805;28;20376;-32
2023/04/26 00:38:13;;;;;;;;;;;5.70;73.10;;;;;;5073102;28;19913;-36
2023/04/26 00:40:39;;;;;;;;;;;5.70;73.10;;;;;;5072832;28;20280;-37
2023/04/26 00:43:04;;;;;;;;;;;5.70;73.10;;;;;;5072636;28;19946;-31
2023/04/26 00:45:30;;;;;;;;;;;5.70;73.20;;;;;;5072882;28;19917;-28
2023/04/26 00:47:57;;;;;;;;;;;5.70;73.20;;;;;;5072835;28;19912;-31
2023/04/26 00:50:23;;;;;;;;;;;5.70;73.30;;;;;;5073141;28;19913;-29
2023/04/26 00:52:49;;;;;;;;;;;5.70;73.40;;;;;;5072918;28;19919;-33
2023/04/26 00:55:15;;;;;;;;;;;5.60;73.40;;;;;;5072968;28;19913;-29
2023/04/26 00:57:40;;;;;;;;;;;5.60;73.40;;;;;;5072652;28;19916;-29
2023/04/26 01:00:06;;;;;;;;;;;5.60;73.50;;;;;;5072604;28;19926;-28
2023/04/26 01:02:32;;;;;;;;;;;5.60;73.60;;;;;;5072530;28;19912;-29
2023/04/26 01:04:57;;;;;;;;;;;5.60;73.60;;;;;;5072448;28;20272;-29
2023/04/26 01:07:23;;;;;;;;;;;5.60;73.60;;;;;;5072734;28;20376;-29
2023/04/26 01:09:49;;;;;;;;;;;5.60;73.70;;;;;;5072678;28;19912;-29
2023/04/26 01:12:15;;;;;;;;;;;5.60;73.80;;;;;;5072223;28;19912;-32
2023/04/26 01:14:41;;;;;;;;;;;5.60;73.80;;;;;;5072676;28;19912;-32
2023/04/26 01:17:07;;;;;;;;;;;5.50;73.80;;;;;;5072738;28;19913;-36
2023/04/26 01:19:32;;;;;;;;;;;5.50;73.90;;;;;;5070992;28;19918;-28
2023/04/26 01:21:58;;;;;;;;;;;5.50;73.90;;;;;;5072240;28;19924;-34
2023/04/26 01:24:23;;;;;;;;;;;5.50;74.00;;;;;;5072000;28;20030;-33
2023/04/26 01:26:49;;;;;;;;;;;5.50;74.00;;;;;;5072204;28;19913;-31
2023/04/26 01:29:15;;;;;;;;;;;5.50;74.10;;;;;;5072153;28;19917;-28
2023/04/26 01:31:40;;;;;;;;;;;5.50;74.20;;;;;;5072339;28;19977;-30
2023/04/26 01:34:06;;;;;;;;;;;5.50;74.20;;;;;;5072144;28;19912;-29
2023/04/26 01:36:31;;;;;;;;;;;5.50;74.30;;;;;;5072308;28;19999;-29
2023/04/26 01:38:57;;;;;;;;;;;5.50;74.40;;;;;;5072074;28;19912;-32
2023/04/26 01:41:23;;;;;;;;;;;5.40;74.40;;;;;;5071985;28;19993;-29
2023/04/26 01:43:49;;;;;;;;;;;5.40;74.50;;;;;;5071850;28;20276;-28
2023/04/26 01:46:14;;;;;;;;;;;5.40;74.60;;;;;;5072224;28;20010;-28
2023/04/26 01:48:40;;;;;;;;;;;5.40;74.70;;;;;;5071891;28;20962;-29
2023/04/26 01:51:05;;;;;;;;;;;5.40;74.80;;;;;;5072228;28;19909;-34
2023/04/26 01:53:31;;;;;;;;;;;5.40;74.80;;;;;;5070862;28;20287;-30
2023/04/26 01:55:59;;;;;;;;;;;5.30;74.80;;;;;;5071858;28;19914;-38
2023/04/26 01:58:24;;;;;;;;;;;5.40;74.90;;;;;;5071977;28;19913;-31
2023/04/26 02:00:50;;;;;;;;;;;5.40;74.90;;;;;;5071632;28;20264;-32
2023/04/26 02:03:15;;;;;;;;;;;5.30;74.80;;;;;;5071640;28;19913;-30
2023/04/26 02:05:41;;;;;;;;;;;5.40;74.90;;;;;;5071614;28;19920;-35
2023/04/26 02:08:06;;;;;;;;;;;5.30;74.80;;;;;;5071665;28;19954;-30
2023/04/26 02:10:32;;;;;;;;;;;5.30;74.90;;;;;;5071112;28;19952;-31
2023/04/26 02:12:57;;;;;;;;;;;5.30;74.90;;;;;;5071489;28;19994;-30
2023/04/26 02:15:23;;;;;;;;;;;5.30;75.00;;;;;;5071517;28;19916;-35
2023/04/26 02:17:48;;;;;;;;;;;5.30;75.10;;;;;;5071517;28;20353;-29
2023/04/26 02:20:14;;;;;;;;;;;5.20;75.20;;;;;;5071555;28;19931;-32
2023/04/26 02:22:39;;;;;;;;;;;5.20;75.30;;;;;;5071553;28;20049;-29
2023/04/26 02:25:05;;;;;;;;;;;5.20;75.40;;;;;;5071797;28;19909;-31
2023/04/26 02:27:31;;;;;;;;;;;5.10;75.50;;;;;;5071490;28;19908;-29
2023/04/26 02:29:57;;;;;;;;;;;5.10;75.60;;;;;;5071454;28;19912;-29
2023/04/26 02:32:22;;;;;;;;;;;5.10;75.70;;;;;;5071783;28;19909;-29
2023/04/26 02:34:48;;;;;;;;;;;5.10;75.80;;;;;;5071475;28;19909;-39
2023/04/26 02:37:13;;;;;;;;;;;5.10;75.90;;;;;;5071375;28;19913;-29
2023/04/26 02:39:39;;;;;;;;;;;5.00;76.00;;;;;;5071334;28;20392;-31
2023/04/26 02:42:08;;;;;;;;;;;5.00;76.10;;;;;;5071390;28;19908;-31
2023/04/26 02:44:34;;;;;;;;;;;5.00;76.20;;;;;;5071467;28;19912;-29
2023/04/26 02:46:59;;;;;;;;;;;4.90;76.20;;;;;;5071530;28;20407;-31
2023/04/26 02:49:24;;;;;;;;;;;4.90;76.40;;;;;;5071335;28;20376;-29
2023/04/26 02:51:50;;;;;;;;;;;4.90;76.40;;;;;;5071466;28;19909;-29
2023/04/26 02:54:16;;;;;;;;;;;4.90;76.40;;;;;;5071246;28;19909;-29
2023/04/26 02:56:41;;;;;;;;;;;4.90;76.40;;;;;;5071177;28;19913;-29
2023/04/26 02:59:07;;;;;;;;;;;4.90;76.50;;;;;;5071469;28;19938;-28
2023/04/26 03:01:32;;;;;;;;;;;4.80;76.40;;;;;;5071143;28;19922;-28
2023/04/26 03:03:58;;;;;;;;;;;4.80;76.50;;;;;;5071107;28;19912;-29
2023/04/26 03:06:23;;;;;;;;;;;4.80;76.60;;;;;;5074251;28;19909;-28
2023/04/26 03:08:49;;;;;;;;;;;4.80;76.60;;;;;;5074553;28;19908;-29
2023/04/26 03:11:14;;;;;;;;;;;4.80;76.60;;;;;;5074651;28;19909;-29
2023/04/26 03:13:40;;;;;;;;;;;4.80;76.70;;;;;;5074683;28;19909;-28
2023/04/26 03:16:05;;;;;;;;;;;4.80;76.70;;;;;;5074897;28;19915;-29
2023/04/26 03:18:31;;;;;;;;;;;4.80;76.80;;;;;;5074592;28;20416;-29
2023/04/26 03:20:56;;;;;;;;;;;4.80;76.80;;;;;;5074773;28;19909;-28
2023/04/26 03:23:24;;;;;;;;;;;4.70;76.90;;;;;;5074194;28;19952;-29
2023/04/26 03:25:50;;;;;;;;;;;4.70;76.90;;;;;;5074627;28;19908;-29
2023/04/26 03:28:16;;;;;;;;;;;4.70;77.00;;;;;;5074810;28;19909;-30
2023/04/26 03:30:41;;;;;;;;;;;4.70;77.10;;;;;;5074158;28;19913;-28
2023/04/26 03:33:07;;;;;;;;;;;4.70;77.20;;;;;;5074278;28;19908;-28
2023/04/26 03:35:32;;;;;;;;;;;4.70;77.30;;;;;;5074225;28;19908;-29
2023/04/26 03:37:58;;;;;;;;;;;4.70;77.40;;;;;;5074395;28;20221;-28
2023/04/26 03:40:23;;;;;;;;;;;4.60;77.40;;;;;;5074321;28;19908;-29
2023/04/26 03:42:49;;;;;;;;;;;4.60;77.50;;;;;;5073988;28;19915;-29
2023/04/26 03:45:14;;;;;;;;;;;4.60;77.70;;;;;;5074297;28;19908;-30
2023/04/26 03:47:40;;;;;;;;;;;4.60;77.70;;;;;;5074188;28;20083;-28
2023/04/26 03:50:05;;;;;;;;;;;4.60;77.70;;;;;;5073963;28;19951;-32
2023/04/26 03:52:31;;;;;;;;;;;4.50;77.70;;;;;;5073901;28;19908;-29
2023/04/26 03:54:56;;;;;;;;;;;4.50;77.80;;;;;;5073974;28;19908;-29
2023/04/26 03:57:22;;;;;;;;;;;4.60;77.90;;;;;;5074182;28;20314;-28
2023/04/26 03:59:47;;;;;;;;;;;4.50;77.90;;;;;;5073738;28;19971;-29
2023/04/26 04:02:13;;;;;;;;;;;4.50;78.00;;;;;;5073763;28;19909;-32
2023/04/26 04:04:39;;;;;;;;;;;4.50;78.10;;;;;;5073778;28;19919;-29
2023/04/26 04:07:04;;;;;;;;;;;4.50;78.20;;;;;;5074039;28;19908;-29
2023/04/26 04:09:30;;;;;;;;;;;4.50;78.30;;;;;;5073948;28;20443;-30
2023/04/26 04:11:55;;;;;;;;;;;4.50;78.40;;;;;;5073600;28;20414;-29
2023/04/26 04:14:20;;;;;;;;;;;4.50;78.40;;;;;;5073562;28;20287;-28
2023/04/26 04:16:46;;;;;;;;;;;4.50;78.50;;;;;;5072747;28;19995;-28
2023/04/26 04:19:11;;;;;;;;;;;4.50;78.50;;;;;;5073734;28;19909;-33
2023/04/26 04:21:37;;;;;;;;;;;4.40;78.50;;;;;;5073402;28;19919;-29
2023/04/26 04:24:03;;;;;;;;;;;4.50;78.60;;;;;;5073090;28;20273;-30
2023/04/26 04:26:29;;;;;;;;;;;4.50;78.60;;;;;;5073327;28;19940;-30
2023/04/26 04:28:56;;;;;;;;;;;4.50;78.80;;;;;;5072061;28;19995;-29
2023/04/26 04:31:21;;;;;;;;;;;4.50;78.70;;;;;;5073522;28;19908;-31
2023/04/26 04:33:47;;;;;;;;;;;4.50;78.80;;;;;;5073093;28;20447;-31
2023/04/26 04:36:15;;;;;;;;;;;4.50;78.80;;;;;;5073427;28;20022;-30
2023/04/26 04:38:41;;;;;;;;;;;4.50;78.90;;;;;;5073259;28;20542;-29
2023/04/26 04:41:07;;;;;;;;;;;4.50;78.80;;;;;;5073044;28;19992;-31
2023/04/26 04:43:33;;;;;;;;;;;4.50;78.90;;;;;;5073102;28;19956;-29
2023/04/26 04:45:58;;;;;;;;;;;4.60;78.90;;;;;;5073453;28;19970;-29
2023/04/26 04:48:24;;;;;;;;;;;4.60;78.90;;;;;;5073102;28;19908;-30
2023/04/26 04:50:50;;;;;;;;;;;4.60;78.90;;;;;;5073120;28;19909;-32
2023/04/26 04:53:16;;;;;;;;;;;4.60;78.90;;;;;;5073158;28;20360;-30
2023/04/26 04:55:41;;;;;;;;;;;4.60;78.90;;;;;;5072943;28;19912;-30
2023/04/26 04:58:07;;;;;;;;;;;4.70;78.90;;;;;;5072871;28;19912;-29
2023/04/26 05:00:33;;;;;;;;;;;4.70;78.80;;;;;;5070894;28;19916;-33
2023/04/26 05:02:58;;;;;;;;;;;4.70;79.40;;;;;;5071762;28;20408;-33
2023/04/26 05:05:23;;;;;;;;;;;4.80;78.70;;;;;;5071712;28;19974;-31
2023/04/26 05:07:49;;;;;;;;;;;4.80;78.70;;;;;;5071137;28;19908;-31
2023/04/26 05:10:15;;;;;;;;;;;4.80;78.60;;;;;;5069815;28;19952;-31
2023/04/26 05:12:40;;;;;;;;;;;4.90;78.60;;;;;;5071582;28;20151;-30
2023/04/26 05:15:06;;;;;;;;;;;4.90;78.50;;;;;;5071199;28;20011;-32
2023/04/26 05:17:32;;;;;;;;;;;4.90;78.50;;;;;;5071427;28;19909;-39
2023/04/26 05:19:57;;;;;;;;;;;4.90;78.50;;;;;;5071380;28;20392;-31
2023/04/26 05:22:23;;;;;;;;;;;5.00;78.50;;;;;;5071103;28;20411;-33
2023/04/26 05:24:48;;;;;;;;;;;5.00;78.40;;;;;;5070867;28;19924;-34
2023/04/26 05:27:14;;;;;;;;;;;5.00;78.40;;;;;;5071265;28;19908;-32
2023/04/26 05:29:40;;;;;;;;;;;5.00;78.40;;;;;;5071522;28;19924;-30
2023/04/26 05:32:05;;;;;;;;;;;5.00;78.40;;;;;;5072329;28;19908;-29
2023/04/26 05:34:31;;;;;;;;;;;5.10;78.50;;;;;;5072139;28;19916;-32
2023/04/26 05:36:57;;;;;;;;;;;5.20;78.50;;;;;;5072525;28;19908;-30
2023/04/26 05:39:22;;;;;;;;;;;5.20;78.80;;;;;;5072280;28;19954;-30
2023/04/26 05:41:47;;;;;;;;;;;5.20;78.40;;;;;;5071982;28;19943;-34
2023/04/26 05:44:13;;;;;;;;;;;5.30;78.40;;;;;;5071939;28;20131;-30
2023/04/26 05:46:39;;;;;;;;;;;5.30;78.40;;;;;;5072441;28;19970;-29
2023/04/26 05:49:05;;;;;;;;;;;5.30;79.00;;;;;;5072204;28;19926;-30
2023/04/26 05:51:30;;;;;;;;;;;5.30;78.30;;;;;;5072164;28;19936;-33
2023/04/26 05:53:56;;;;;;;;;;;5.40;78.30;;;;;;5071934;28;19909;-31
2023/04/26 05:56:23;;;;;;;;;;;5.50;78.30;;;;;;5072223;28;19909;-39
2023/04/26 05:58:48;;;;;;;;;;;5.50;78.20;;;;;;5072063;28;19908;-30
2023/04/26 06:01:14;;;;;;;;;;;5.60;78.20;;;;;;5071726;28;20417;-30
2023/04/26 06:03:39;;;;;;;;;;;5.60;78.10;;;;;;5071569;28;19916;-30
2023/04/26 06:06:05;;;;;;;;;;;5.70;78.10;;;;;;5071761;28;20283;-30
2023/04/26 06:08:30;;;;;;;;;;;5.70;78.00;;;;;;5072004;28;19908;-33
2023/04/26 06:10:56;;;;;;;;;;;5.70;77.90;;;;;;5071728;28;19916;-30
2023/04/26 06:13:21;;;;;;;;;;;5.80;77.90;;;;;;5071730;28;19916;-31
2023/04/26 06:15:47;;;;;;;;;;;5.90;77.80;;;;;;5071581;28;19977;-32
2023/04/26 06:18:12;;;;;;;;;;;6.00;77.70;;;;;;5070385;28;19996;-29
2023/04/26 06:20:37;;;;;;;;;;;6.10;77.60;;;;;;5071602;28;19909;-33
2023/04/26 06:23:03;;;;;;;;;;;6.20;77.60;;;;;;5071357;28;20407;-31
2023/04/26 06:25:29;;;;;;;;;;;6.30;77.50;;;;;;5071560;28;19909;-34
2023/04/26 06:27:54;;;;;;;;;;;6.40;77.40;;;;;;5071460;28;20261;-30
2023/04/26 06:30:20;;;;;;;;;;;6.50;77.20;;;;;;5071654;28;19966;-32
2023/04/26 06:32:45;;;;;;;;;;;6.60;77.00;;;;;;5071539;28;19962;-30
2023/04/26 06:35:11;;;;;;;;;;;6.80;76.90;;;;;;5071457;28;19999;-32
2023/04/26 06:37:37;;;;;;;;;;;6.90;76.80;;;;;;5071375;28;19915;-30
2023/04/26 06:40:03;;;;;;;;;;;7.00;76.50;;;;;;5072461;28;19953;-30
2023/04/26 06:42:29;;;;;;;;;;;7.20;76.50;;;;;;5075191;28;19908;-31
2023/04/26 06:44:54;;;;;;;;;;;7.30;76.20;;;;;;5075189;28;19913;-30
2023/04/26 06:47:20;;;;;;;;;;;7.30;76.10;;;;;;5075347;28;19908;-30
2023/04/26 06:49:45;;;;;;;;;;;7.40;76.00;;;;;;5075063;28;20284;-29
2023/04/26 06:52:11;;;;;;;;;;;7.50;76.60;;;;;;5075141;28;20007;-29
2023/04/26 06:54:36;;;;;;;;;;;7.50;75.90;;;;;;5075012;28;20321;-30
2023/04/26 06:57:02;;;;;;;;;;;7.50;75.80;;;;;;5074855;28;20390;-31
2023/04/26 06:59:27;;;;;;;;;;;7.60;75.70;;;;;;5074896;28;20353;-30
2023/04/26 07:01:53;;;;;;;;;;;7.60;75.70;;;;;;5074959;28;19943;-32
2023/04/26 07:04:19;;;;;;;;;;;7.70;75.60;;;;;;5073498;28;19913;-34
2023/04/26 07:06:45;;;;;;;;;;;7.80;75.50;;;;;;5074945;28;19908;-29
2023/04/26 07:09:11;;;;;;;;;;;7.80;75.40;;;;;;5074928;28;20003;-30
2023/04/26 07:11:36;;;;;;;;;;;7.90;75.20;;;;;;5074775;28;19919;-31
2023/04/26 07:14:03;;;;;;;;;;;7.90;75.20;;;;;;5074817;28;19908;-31
2023/04/26 07:16:28;;;;;;;;;;;8.00;75.10;;;;;;5074628;28;19909;-34
2023/04/26 07:18:57;;;;;;;;;;;8.00;75.00;;;;;;5074419;28;20322;-32
2023/04/26 07:21:22;;;;;;;;;;;8.10;74.80;;;;;;5074315;28;20011;-33
2023/04/26 07:23:51;;;;;;;;;;;8.20;74.40;;;;;;5074213;28;20400;-34
2023/04/26 07:26:17;;;;;;;;;;;8.20;74.40;;;;;;5074815;28;19909;-36
2023/04/26 07:28:42;;;;;;;;;;;8.30;74.00;;;;;;5074268;28;20230;-30
2023/04/26 07:31:08;;;;;;;;;;;8.40;74.00;;;;;;5074300;28;19961;-33
2023/04/26 07:33:33;;;;;;;;;;;8.50;73.80;;;;;;5074266;28;19915;-30
2023/04/26 07:36:00;;;;;;;;;;;8.50;73.60;;;;;;5074085;28;19913;-31
2023/04/26 07:38:25;;;;;;;;;;;8.60;73.40;;;;;;5073980;28;20422;-33
2023/04/26 07:40:51;;;;;;;;;;;8.70;73.20;;;;;;5074072;28;19908;-31
2023/04/26 07:43:17;;;;;;;;;;;8.80;71.70;;;;;;5074016;28;20305;-30
2023/04/26 07:45:43;;;;;;;;;;;8.80;70.80;;;;;;5073611;28;19913;-34
2023/04/26 07:48:08;;;;;;;;;;;8.80;71.00;;;;;;5073120;28;20374;-33
2023/04/26 07:50:34;;;;;;;;;;;8.90;70.00;;;;;;5071393;28;20012;-29
2023/04/26 07:52:59;;;;;;;;;;;8.90;70.40;;;;;;5073674;28;19923;-32
2023/04/26 07:55:25;;;;;;;;;;;9.00;70.30;;;;;;5073747;28;19974;-29
2023/04/26 07:57:50;;;;;;;;;;;9.00;70.10;;;;;;5073796;28;20388;-33
2023/04/26 08:00:17;;;;;;;;;;;9.10;70.10;;;;;;5073665;28;19908;-32
2023/04/26 08:02:45;;;;;;;;;;;9.10;69.20;;;;;;5073520;28;19908;-33
2023/04/26 08:05:10;;;;;;;;;;;9.10;69.70;;;;;;5073665;28;19912;-31
2023/04/26 08:07:36;;;;;;;;;;;9.20;68.50;;;;;;5072265;28;20355;-30
2023/04/26 08:10:01;;;;;;;;;;;9.20;68.80;;;;;;5073658;28;20390;-30
2023/04/26 08:12:27;;;;;;;;;;;9.30;69.20;;;;;;5073588;28;19909;-32
2023/04/26 08:14:53;;;;;;;;;;;9.30;69.20;;;;;;5073888;28;19909;-30
2023/04/26 08:17:18;;;;;;;;;;;9.40;69.00;;;;;;5073664;28;20193;-30
2023/04/26 08:19:43;;;;;;;;;;;9.40;68.90;;;;;;5073259;28;19958;-31
2023/04/26 08:22:09;;;;;;;;;;;9.50;69.00;;;;;;5073313;28;19927;-30
2023/04/26 08:24:34;;;;;;;;;;;9.50;69.00;;;;;;5073148;28;19924;-30
2023/04/26 08:27:00;;;;;;;;;;;9.50;69.00;;;;;;5073222;28;20344;-33
2023/04/26 08:29:26;;;;;;;;;;;9.50;68.90;;;;;;5073130;28;19908;-32
2023/04/26 08:31:52;;;;;;;;;;;9.50;68.00;;;;;;5072887;28;19908;-30
2023/04/26 08:34:17;;;;;;;;;;;9.50;66.80;;;;;;5073100;28;19999;-30
2023/04/26 08:36:44;;;;;;;;;;;9.50;67.00;;;;;;5071649;28;19999;-33
2023/04/26 08:39:11;;;;;;;;;;;9.50;66.60;;;;;;5072957;28;20412;-30
2023/04/26 08:41:41;;;;;;;;;;;9.60;66.70;;;;;;5072742;28;20353;-30
2023/04/26 08:44:07;;;;;;;;;;;9.80;66.50;;;;;;5072726;28;19997;-31
2023/04/26 08:46:38;;;;;;;;;;;9.90;65.50;;;;;;5073048;28;19908;-30
2023/04/26 08:49:16;;;;;;;;;;;9.90;64.80;;;;;;5072674;28;19909;-31
2023/04/26 08:51:42;;;;;;;;;;;9.90;64.30;;;;;;5072767;28;20487;-29
2023/04/26 08:54:09;;;;;;;;;;;9.80;64.50;;;;;;5072612;28;20026;-31
2023/04/26 08:56:35;;;;;;;;;;;9.80;64.40;;;;;;5072575;28;19939;-34
2023/04/26 08:59:00;;;;;;;;;;;9.80;64.30;;;;;;5072589;28;19908;-30
2023/04/26 09:01:27;;;;;;;;;;;9.70;63.00;;;;;;5072366;28;19909;-32
2023/04/26 09:03:54;;;;;;;;;;;9.70;64.10;;;;;;5071501;28;19913;-39
2023/04/26 09:06:20;;;;;;;;;;;9.70;64.30;;;;;;5072112;28;19958;-30
2023/04/26 09:08:46;;;;;;;;;;;9.70;64.40;;;;;;5072327;28;19909;-30
2023/04/26 09:11:11;;;;;;;;;;;9.70;64.20;;;;;;5072178;28;19958;-30
2023/04/26 09:13:37;;;;;;;;;;;9.80;64.70;;;;;;5072249;28;20361;-33
2023/04/26 09:16:02;;;;;;;;;;;9.80;63.50;;;;;;5070534;28;19908;-33
2023/04/26 09:18:30;;;;;;;;;;;9.70;64.00;;;;;;5072007;28;19951;-29
2023/04/26 09:21:01;;;;;;;;;;;9.70;64.40;;;;;;5070573;28;19915;-29
2023/04/26 09:23:27;;;;;;;;;;;9.80;64.70;;;;;;5071756;28;19973;-30
2023/04/26 09:25:52;;;;;;;;;;;9.80;64.40;;;;;;5071927;28;19991;-42
2023/04/26 09:28:21;;;;;;;;;;;10.00;64.50;;;;;;5071623;28;19915;-30
2023/04/26 09:30:47;;;;;;;;;;;10.10;64.20;;;;;;5071482;28;19909;-30
2023/04/26 09:33:12;;;;;;;;;;;10.30;63.80;;;;;;5071660;28;19908;-33
2023/04/26 09:35:38;;;;;;;;;;;10.40;63.40;;;;;;5071820;28;20335;-29
2023/04/26 09:38:07;;;;;;;;;;;10.40;63.40;;;;;;5071783;28;19909;-35
2023/04/26 09:40:33;;;;;;;;;;;10.50;63.70;;;;;;5071644;28;20283;-33
2023/04/26 09:43:04;;;;;;;;;;;10.60;63.30;;;;;;5071790;28;19986;-33
2023/04/26 09:45:30;;;;;;;;;;;10.50;62.60;;;;;;5070288;28;19999;-30
2023/04/26 09:48:13;;;;;;;;;;;10.50;61.40;;;;;;5071672;28;20348;-30
2023/04/26 09:50:38;;;;;;;;;;;10.40;62.20;;;;;;5071607;28;19908;-31
2023/04/26 09:53:04;;;;;;;;;;;10.40;62.10;;;;;;5071614;28;19915;-32
2023/04/26 09:55:30;;;;;;;;;;;10.30;61.90;;;;;;5071481;28;19912;-30
2023/04/26 09:57:59;;;;;;;;;;;10.20;61.80;;;;;;5071531;28;19909;-29
2023/04/26 10:00:25;;;;;;;;;;;10.10;62.00;;;;;;5071323;28;19916;-29
2023/04/26 10:02:54;;;;;;;;;;;10.10;62.40;;;;;;5071265;28;19908;-29
2023/04/26 10:05:20;;;;;;;;;;;10.10;62.60;;;;;;5071554;28;19912;-29
2023/04/26 10:07:46;;;;;;;;;;;10.00;62.60;;;;;;5071627;28;20025;-30
2023/04/26 10:10:12;;;;;;;;;;;10.10;62.60;;;;;;5071342;28;20387;-30
2023/04/26 10:12:39;;;;;;;;;;;10.20;62.50;;;;;;5071099;28;19962;-29
2023/04/26 10:15:05;;;;;;;;;;;10.10;62.20;;;;;;5072593;28;19947;-29
2023/04/26 10:17:31;;;;;;;;;;;10.20;61.70;;;;;;5075329;28;19909;-30
2023/04/26 10:19:57;;;;;;;;;;;10.20;62.40;;;;;;5075819;28;20021;-30
2023/04/26 10:22:24;;;;;;;;;;;10.20;62.20;;;;;;5075285;28;19916;-29
2023/04/26 10:24:52;;;;;;;;;;;10.40;62.60;;;;;;5075390;28;20092;-32
2023/04/26 10:27:37;;;;;;;;;;;10.50;62.60;;;;;;5075539;28;19959;-29
2023/04/26 10:30:03;;;;;;;;;;;10.60;62.40;;;;;;5075265;28;19983;-31
2023/04/26 10:32:28;;;;;;;;;;;10.80;62.30;;;;;;5075282;28;20030;-30
2023/04/26 10:35:16;;;;;;;;;;;10.90;61.90;;;;;;5075335;28;19909;-29
2023/04/26 10:38:02;;;;;;;;;;;11.00;61.50;;;;;;5075328;28;19943;-33
2023/04/26 10:40:31;;;;;;;;;;;11.10;61.30;;;;;;5075140;28;19962;-29
2023/04/26 10:43:20;;;;;;;;;;;11.20;61.20;;;;;;5075336;28;20003;-30
2023/04/26 10:45:46;;;;;;;;;;;11.20;60.50;;;;;;5074564;28;19916;-29
2023/04/26 10:48:12;;;;;;;;;;;11.20;61.10;;;;;;5074969;28;19908;-30
2023/04/26 10:50:56;;;;;;;;;;;11.20;60.50;;;;;;5075010;28;19915;-30
2023/04/26 10:53:22;;;;;;;;;;;11.10;60.20;;;;;;5074819;28;19908;-29
2023/04/26 10:55:47;;;;;;;;;;;11.00;60.70;;;;;;5074846;28;19908;-30
2023/04/26 10:58:28;;;;;;;;;;;11.10;60.60;;;;;;5074719;28;20365;-30
2023/04/26 11:01:03;;;;;;;;;;;11.10;60.80;;;;;;5075083;28;20393;-30
2023/04/26 11:03:29;;;;;;;;;;;11.10;60.40;;;;;;5074689;28;19971;-30
2023/04/26 11:05:55;;;;;;;;;;;11.00;59.50;;;;;;5074624;28;19959;-30
2023/04/26 11:08:24;;;;;;;;;;;10.90;59.10;;;;;;5074629;28;19908;-32
2023/04/26 11:10:51;;;;;;;;;;;10.90;59.40;;;;;;5074413;28;19908;-30
2023/04/26 11:13:18;;;;;;;;;;;10.90;59.20;;;;;;5074903;28;20295;-30
2023/04/26 11:15:43;;;;;;;;;;;10.80;58.80;;;;;;5074742;28;19909;-35
2023/04/26 11:18:10;;;;;;;;;;;10.90;59.60;;;;;;5074541;28;19927;-29
2023/04/26 11:20:35;;;;;;;;;;;10.90;59.40;;;;;;5074289;28;19908;-30
2023/04/26 11:23:01;;;;;;;;;;;10.90;59.30;;;;;;5074021;28;19958;-33
2023/04/26 11:25:28;;;;;;;;;;;11.00;59.70;;;;;;5073888;28;19912;-30
2023/04/26 11:27:57;;;;;;;;;;;11.10;59.70;;;;;;5074161;28;19931;-29
2023/04/26 11:30:23;;;;;;;;;;;11.10;59.20;;;;;;5074042;28;19916;-32
2023/04/26 11:32:48;;;;;;;;;;;11.20;59.20;;;;;;5074181;28;20364;-30
2023/04/26 11:35:14;;;;;;;;;;;11.20;59.40;;;;;;5074271;28;19920;-33
2023/04/26 11:37:40;;;;;;;;;;;11.30;59.30;;;;;;5074127;28;20299;-35
2023/04/26 11:40:09;;;;;;;;;;;11.40;58.90;;;;;;5074520;28;20356;-31
2023/04/26 11:42:34;;;;;;;;;;;11.40;59.00;;;;;;5074443;28;19912;-29
2023/04/26 11:45:00;;;;;;;;;;;11.50;58.40;;;;;;5074259;28;19917;-35
2023/04/26 11:47:29;;;;;;;;;;;11.50;58.50;;;;;;5073944;28;19919;-29
2023/04/26 11:49:55;;;;;;;;;;;11.50;58.70;;;;;;5073897;28;19912;-29
2023/04/26 11:52:20;;;;;;;;;;;11.50;58.00;;;;;;5073896;28;20430;-29
2023/04/26 11:54:46;;;;;;;;;;;11.50;58.30;;;;;;5073780;28;20012;-32
2023/04/26 11:57:15;;;;;;;;;;;11.50;57.90;;;;;;5073749;28;19943;-29
2023/04/26 11:59:41;;;;;;;;;;;11.50;57.40;;;;;;5073647;28;19931;-31
2023/04/26 12:02:07;;;;;;;;;;;11.40;57.20;;;;;;5074043;28;20003;-31
2023/04/26 12:04:33;;;;;;;;;;;11.40;57.60;;;;;;5073754;28;19916;-30
2023/04/26 12:06:59;;;;;;;;;;;11.40;57.70;;;;;;5073745;28;19919;-29
2023/04/26 12:09:28;;;;;;;;;;;11.50;57.50;;;;;;5073635;28;19912;-30
2023/04/26 12:12:07;;;;;;;;;;;11.80;56.50;;;;;;5073524;28;20257;-30
2023/04/26 12:14:41;;;;;;;;;;;11.90;57.30;;;;;;5073293;28;19912;-32
2023/04/26 12:17:07;;;;;;;;;;;12.10;57.10;;;;;;5073512;28;19912;-34
2023/04/26 12:19:33;;;;;;;;;;;12.30;57.10;;;;;;5073259;28;20007;-32
2023/04/26 12:21:58;;;;;;;;;;;12.50;56.60;;;;;;5073247;28;19983;-30
2023/04/26 12:24:25;;;;;;;;;;;12.60;56.70;;;;;;5073131;28;19927;-35
2023/04/26 12:26:50;;;;;;;;;;;12.80;56.10;;;;;;5073143;28;19958;-36
2023/04/26 12:29:16;;;;;;;;;;;12.80;54.90;;;;;;5073205;28;19920;-33
2023/04/26 12:31:42;;;;;;;;;;;12.70;54.70;;;;;;5073023;28;19915;-30
2023/04/26 12:34:07;;;;;;;;;;;12.60;54.60;;;;;;5073592;28;20249;-34
2023/04/26 12:36:32;;;;;;;;;;;12.60;54.10;;;;;;5072920;28;19908;-30
2023/04/26 12:38:59;;;;;;;;;;;12.60;54.70;;;;;;5072092;28;19912;-32
2023/04/26 12:41:25;;;;;;;;;;;12.50;54.60;;;;;;5072928;28;20374;-31
2023/04/26 12:43:51;;;;;;;;;;;12.50;53.70;;;;;;5072966;28;19916;-31
2023/04/26 12:46:16;;;;;;;;;;;12.50;54.20;;;;;;5072672;28;19908;-29
2023/04/26 12:48:41;;;;;;;;;;;12.50;54.60;;;;;;5072638;28;20558;-33
2023/04/26 12:51:07;;;;;;;;;;;12.40;54.80;;;;;;5072606;28;19970;-30
2023/04/26 12:53:33;;;;;;;;;;;12.40;55.20;;;;;;5072561;28;19952;-35
2023/04/26 12:55:58;;;;;;;;;;;12.50;55.50;;;;;;5072436;28;19909;-29
2023/04/26 12:58:24;;;;;;;;;;;12.40;55.20;;;;;;5072503;28;19934;-35
2023/04/26 13:00:50;;;;;;;;;;;12.40;54.80;;;;;;5072386;28;20244;-31
2023/04/26 13:03:16;;;;;;;;;;;12.30;54.70;;;;;;5072219;28;20077;-30
2023/04/26 13:05:41;;;;;;;;;;;12.20;54.70;;;;;;5072314;28;19909;-30
2023/04/26 13:08:07;;;;;;;;;;;12.10;54.30;;;;;;5072296;28;20037;-31
2023/04/26 13:10:34;;;;;;;;;;;12.00;54.90;;;;;;5071952;28;20253;-32
2023/04/26 13:13:00;;;;;;;;;;;11.90;54.30;;;;;;5072497;28;20359;-29
2023/04/26 13:15:26;;;;;;;;;;;11.90;54.60;;;;;;5072190;28;19998;-34
2023/04/26 13:17:52;;;;;;;;;;;11.80;55.10;;;;;;5072182;28;19916;-29
2023/04/26 13:20:18;;;;;;;;;;;11.80;54.60;;;;;;5071986;28;20376;-31
2023/04/26 13:22:43;;;;;;;;;;;11.70;55.20;;;;;;5070386;28;19970;-35
2023/04/26 13:25:10;;;;;;;;;;;11.70;55.40;;;;;;5071952;28;19920;-29
2023/04/26 13:27:35;;;;;;;;;;;11.70;55.30;;;;;;5071782;28;19909;-30
2023/04/26 13:30:03;;;;;;;;;;;11.80;54.90;;;;;;5071598;28;21938;-31
2023/04/26 13:32:28;;;;;;;;;;;11.80;54.20;;;;;;5071998;28;19982;-32
2023/04/26 13:34:54;;;;;;;;;;;11.70;54.50;;;;;;5071940;28;19916;-32
2023/04/26 13:37:20;;;;;;;;;;;11.70;54.00;;;;;;5071751;28;19966;-29
2023/04/26 13:39:46;;;;;;;;;;;11.70;54.70;;;;;;5072226;28;20333;-29
2023/04/26 13:42:12;;;;;;;;;;;11.70;55.00;;;;;;5072050;28;19909;-31
2023/04/26 13:44:38;;;;;;;;;;;11.70;54.90;;;;;;5071902;28;19912;-31
2023/04/26 13:47:03;;;;;;;;;;;11.80;54.30;;;;;;5071624;28;19915;-30
2023/04/26 13:49:29;;;;;;;;;;;11.80;55.00;;;;;;5071773;28;20385;-31
2023/04/26 13:51:54;;;;;;;;;;;11.80;54.70;;;;;;5071612;28;19953;-30
2023/04/26 13:54:24;;;;;;;;;;;11.80;54.40;;;;;;5071902;28;19909;-31
2023/04/26 13:56:51;;;;;;;;;;;11.80;53.80;;;;;;5071467;28;19912;-29
2023/04/26 13:59:16;;;;;;;;;;;11.90;54.70;;;;;;5071483;28;19915;-30
2023/04/26 14:01:42;;;;;;;;;;;12.00;53.50;;;;;;5071563;28;19909;-30
2023/04/26 14:04:08;;;;;;;;;;;12.00;54.30;;;;;;5071436;28;19913;-32
2023/04/26 14:06:33;;;;;;;;;;;12.10;53.80;;;;;;5071714;28;19915;-30
2023/04/26 14:08:59;;;;;;;;;;;12.10;54.30;;;;;;5071425;28;19908;-33
2023/04/26 14:11:25;;;;;;;;;;;12.20;54.20;;;;;;5071439;28;20362;-31
2023/04/26 14:13:54;;;;;;;;;;;12.20;54.20;;;;;;5071407;28;19908;-30
2023/04/26 14:16:21;;;;;;;;;;;12.30;53.70;;;;;;5071510;28;19956;-30
2023/04/26 14:18:47;;;;;;;;;;;12.20;53.50;;;;;;5071367;28;19948;-29
2023/04/26 14:21:13;;;;;;;;;;;12.20;54.10;;;;;;5069956;28;19912;-31